Time;durP1;ratioP1;P1;durP2;ratioP2;P2;SDS_P1;SDS_P2;PMS_P1;PMS_P2;Temp;Humidity;BMP_temperature;BMP_pressure;BME280_temperature;BME280_humidity;BME280_pressure;Samples;Min_cycle;Max_cycle;Signal;HPM_P1;HPM_P2
2023/03/07 00:02:24;;;;;;;;;;;;;;;1.90;82.17;97173.44;5060817;28;19963;-72
2023/03/07 00:04:49;;;;;;;;;;;;;;;1.88;82.02;97170.25;5063771;28;20009;-72
2023/03/07 00:07:14;;;;;;;;;;;;;;;1.82;82.23;97174.59;5057576;28;19936;-72
2023/03/07 00:09:40;;;;;;;;;;;;;;;1.78;82.47;97172.66;5064839;28;19938;-72
2023/03/07 00:12:05;;;;;;;;;;;;;;;2.00;81.82;97157.84;5059714;28;19932;-73
2023/03/07 00:14:31;;;;;;;;;;;;;;;1.84;82.36;97166.47;5056965;28;20395;-73
2023/03/07 00:16:57;;;;;;;;;;;;;;;1.84;82.06;97155.94;5058858;28;19982;-73
2023/03/07 00:19:22;;;;;;;;;;;;;;;1.65;82.93;97157.16;5054322;28;19925;-73
2023/03/07 00:21:47;;;;;;;;;;;;;;;1.56;83.31;97148.84;5056761;28;19924;-73
2023/03/07 00:24:12;;;;;;;;;;;;;;;1.63;83.25;97146.88;5058253;28;19924;-74
2023/03/07 00:26:38;;;;;;;;;;;;;;;1.77;82.39;97142.94;5058114;28;19943;-73
2023/03/07 00:29:04;;;;;;;;;;;;;;;1.56;82.87;97137.50;5056748;28;20000;-73
2023/03/07 00:31:30;;;;;;;;;;;;;;;1.42;83.56;97137.00;5062891;28;19928;-73
2023/03/07 00:33:55;;;;;;;;;;;;;;;1.29;84.43;97132.78;5058145;28;19920;-73
2023/03/07 00:36:21;;;;;;;;;;;;;;;1.23;84.06;97117.94;5057529;28;19946;-73
2023/03/07 00:38:47;;;;;;;;;;;;;;;1.45;83.20;97116.31;5058145;28;19959;-72
2023/03/07 00:41:22;;;;;;;;;;;;;;;1.34;83.74;97105.81;5059539;28;20045;-72
2023/03/07 00:43:47;;;;;;;;;;;;;;;1.53;83.10;97104.59;5061973;28;19974;-73
2023/03/07 00:46:17;;;;;;;;;;;;;;;1.51;83.08;97104.84;5057957;28;19920;-73
2023/03/07 00:48:42;;;;;;;;;;;;;;;1.55;83.18;97101.75;5048138;28;19932;-74
2023/03/07 00:51:09;;;;;;;;;;;;;;;1.53;83.04;97105.41;5059435;28;19944;-75
2023/03/07 00:53:34;;;;;;;;;;;;;;;1.50;83.28;97087.50;5063232;28;19951;-74
2023/03/07 00:56:01;;;;;;;;;;;;;;;1.59;82.81;97092.38;5064895;28;19920;-75
2023/03/07 00:58:27;;;;;;;;;;;;;;;1.29;83.66;97090.75;5065232;28;20408;-74
2023/03/07 01:00:52;;;;;;;;;;;;;;;1.55;83.32;97076.28;5063549;28;19959;-74
2023/03/07 01:03:18;;;;;;;;;;;;;;;1.19;84.66;97080.03;5064546;28;19963;-74
2023/03/07 01:05:44;;;;;;;;;;;;;;;1.34;83.81;97067.19;5061681;28;19928;-76
2023/03/07 01:08:09;;;;;;;;;;;;;;;1.29;83.69;97074.19;5056151;28;20415;-76
2023/03/07 01:10:34;;;;;;;;;;;;;;;1.36;83.70;97061.69;5062539;28;20805;-76
2023/03/07 01:12:59;;;;;;;;;;;;;;;1.38;83.99;97064.88;5062898;28;19982;-75
2023/03/07 01:15:25;;;;;;;;;;;;;;;1.56;83.23;97053.38;5067719;28;19916;-74
2023/03/07 01:17:50;;;;;;;;;;;;;;;1.39;83.48;97053.34;5065827;28;20455;-75
2023/03/07 01:20:15;;;;;;;;;;;;;;;1.45;83.46;97055.84;5063358;28;20440;-74
2023/03/07 01:22:41;;;;;;;;;;;;;;;1.43;83.88;97042.16;5059859;28;20006;-75
2023/03/07 01:25:06;;;;;;;;;;;;;;;1.38;83.45;97047.28;5065109;28;20853;-74
2023/03/07 01:27:31;;;;;;;;;;;;;;;1.34;83.78;97037.47;5061467;28;19934;-75
2023/03/07 01:29:57;;;;;;;;;;;;;;;1.37;83.49;97035.19;5062183;28;19936;-74
2023/03/07 01:32:22;;;;;;;;;;;;;;;1.30;84.00;97028.47;5066007;28;19931;-75
2023/03/07 01:34:47;;;;;;;;;;;;;;;1.17;84.38;97026.94;5065577;28;19921;-75
2023/03/07 01:37:12;;;;;;;;;;;;;;;1.23;84.45;97020.72;5063695;28;19971;-74
2023/03/07 01:39:37;;;;;;;;;;;;;;;1.29;84.04;97027.66;5063128;28;20027;-75
2023/03/07 01:42:03;;;;;;;;;;;;;;;1.13;84.88;97014.50;5062026;28;19942;-75
2023/03/07 01:44:28;;;;;;;;;;;;;;;1.07;84.89;97007.53;5047149;28;19920;-74
2023/03/07 01:46:55;;;;;;;;;;;;;;;1.20;84.61;97005.41;5065363;28;19951;-74
2023/03/07 01:49:20;;;;;;;;;;;;;;;1.18;84.87;96999.59;5062587;28;19962;-75
2023/03/07 01:51:48;;;;;;;;;;;;;;;1.21;84.46;97004.41;5046301;28;19925;-75
2023/03/07 01:54:15;;;;;;;;;;;;;;;1.27;84.46;96989.53;5065651;28;19924;-74
2023/03/07 01:56:42;;;;;;;;;;;;;;;1.28;84.27;96981.41;5062246;28;20389;-74
2023/03/07 01:59:07;;;;;;;;;;;;;;;1.20;84.38;96986.25;5066954;28;19924;-74
2023/03/07 02:01:33;;;;;;;;;;;;;;;1.10;84.47;96971.09;5060540;28;19916;-74
2023/03/07 02:04:01;;;;;;;;;;;;;;;1.22;84.50;96978.94;5047569;28;19970;-74
2023/03/07 02:06:29;;;;;;;;;;;;;;;0.99;85.21;96969.31;5067549;28;20036;-77
2023/03/07 02:08:55;;;;;;;;;;;;;;;1.08;84.73;96953.97;5065184;28;19924;-77
2023/03/07 02:11:21;;;;;;;;;;;;;;;1.02;84.51;96963.59;5067787;28;22133;-76
2023/03/07 02:13:46;;;;;;;;;;;;;;;1.11;84.77;96966.66;5065197;28;19967;-77
2023/03/07 02:16:12;;;;;;;;;;;;;;;1.22;84.11;96961.31;5064291;28;19965;-76
2023/03/07 02:18:41;;;;;;;;;;;;;;;1.25;84.36;96950.34;5062329;28;19920;-75
2023/03/07 02:21:16;;;;;;;;;;;;;;;1.17;84.55;96940.22;5056238;28;20798;-76
2023/03/07 02:23:51;;;;;;;;;;;;;;;1.27;84.46;96935.16;5059725;28;19924;-76
2023/03/07 02:26:21;;;;;;;;;;;;;;;1.33;83.70;96934.19;5061344;28;19917;-76
2023/03/07 02:28:46;;;;;;;;;;;;;;;1.34;84.12;96927.91;5041692;28;19920;-77
2023/03/07 02:31:12;;;;;;;;;;;;;;;1.31;84.11;96914.47;5062666;28;19916;-76
2023/03/07 02:33:37;;;;;;;;;;;;;;;1.28;84.52;96928.06;5062489;28;19925;-79
2023/03/07 02:36:08;;;;;;;;;;;;;;;1.28;84.34;96928.88;5046225;28;19945;-76
2023/03/07 02:38:36;;;;;;;;;;;;;;;1.34;84.10;96921.84;5060120;28;19916;-75
2023/03/07 02:41:03;;;;;;;;;;;;;;;1.16;84.69;96920.22;5054901;28;19950;-76
2023/03/07 02:43:28;;;;;;;;;;;;;;;1.31;84.33;96909.97;5054143;28;19931;-77
2023/03/07 02:45:54;;;;;;;;;;;;;;;1.33;84.20;96915.78;5048834;28;19929;-77
2023/03/07 02:48:19;;;;;;;;;;;;;;;1.28;84.17;96907.03;5050093;28;20307;-75
2023/03/07 02:50:46;;;;;;;;;;;;;;;1.23;84.89;96912.19;5044001;28;19970;-73
2023/03/07 02:53:11;;;;;;;;;;;;;;;1.34;84.41;96909.53;5048229;28;20007;-73
2023/03/07 02:55:36;;;;;;;;;;;;;;;1.22;85.26;96903.50;5056679;28;20371;-73
2023/03/07 02:58:02;;;;;;;;;;;;;;;1.28;84.77;96904.41;5059013;28;19925;-73
2023/03/07 03:00:27;;;;;;;;;;;;;;;1.33;84.33;96900.03;5064010;28;19958;-74
2023/03/07 03:02:52;;;;;;;;;;;;;;;1.19;85.01;96898.75;5059827;28;20002;-75
2023/03/07 03:05:17;;;;;;;;;;;;;;;1.28;84.77;96893.91;5051953;28;19917;-75
2023/03/07 03:07:43;;;;;;;;;;;;;;;1.28;84.66;96892.09;5064836;28;19925;-74
2023/03/07 03:10:08;;;;;;;;;;;;;;;1.30;84.29;96892.63;5066914;28;20328;-74
2023/03/07 03:12:33;;;;;;;;;;;;;;;1.34;84.36;96890.31;5046886;28;20335;-75
2023/03/07 03:14:58;;;;;;;;;;;;;;;1.27;84.66;96889.66;5058690;28;19930;-75
2023/03/07 03:17:24;;;;;;;;;;;;;;;1.11;84.66;96888.63;5059512;28;19928;-75
2023/03/07 03:19:49;;;;;;;;;;;;;;;1.31;84.43;96882.94;5059943;28;20368;-76
2023/03/07 03:22:14;;;;;;;;;;;;;;;1.31;84.54;96878.44;5050914;28;20460;-75
2023/03/07 03:24:41;;;;;;;;;;;;;;;1.34;84.33;96878.00;5040249;28;20321;-74
2023/03/07 03:27:06;;;;;;;;;;;;;;;1.36;84.26;96885.63;5038021;28;20820;-74
2023/03/07 03:29:31;;;;;;;;;;;;;;;1.34;84.57;96887.69;5040704;28;19928;-73
2023/03/07 03:31:57;;;;;;;;;;;;;;;1.29;84.72;96871.88;5060242;28;19973;-74
2023/03/07 03:34:22;;;;;;;;;;;;;;;1.20;85.09;96875.91;5059327;28;19928;-74
2023/03/07 03:36:47;;;;;;;;;;;;;;;1.21;84.89;96877.50;5054664;28;19924;-74
2023/03/07 03:39:13;;;;;;;;;;;;;;;1.24;84.86;96883.09;5042607;28;19929;-74
2023/03/07 03:41:38;;;;;;;;;;;;;;;1.16;85.21;96872.94;5062795;28;19920;-74
2023/03/07 03:44:03;;;;;;;;;;;;;;;1.33;85.16;96879.00;5040979;28;19921;-74
2023/03/07 03:46:29;;;;;;;;;;;;;;;1.37;84.68;96874.91;5065551;28;20427;-74
2023/03/07 03:48:54;;;;;;;;;;;;;;;1.34;84.77;96877.19;5065677;28;19929;-74
2023/03/07 03:51:20;;;;;;;;;;;;;;;1.27;84.74;96877.34;5064691;28;20562;-74
2023/03/07 03:53:45;;;;;;;;;;;;;;;1.34;84.76;96867.47;5068178;28;19928;-73
2023/03/07 03:56:15;;;;;;;;;;;;;;;1.26;85.31;96875.75;5059292;28;19916;-76
2023/03/07 03:58:40;;;;;;;;;;;;;;;1.28;84.77;96867.63;5064564;28;19927;-76
2023/03/07 04:01:07;;;;;;;;;;;;;;;1.34;85.01;96871.94;5062987;28;20296;-77
2023/03/07 04:03:34;;;;;;;;;;;;;;;1.22;85.40;96869.34;5063007;28;19929;-76
2023/03/07 04:06:00;;;;;;;;;;;;;;;1.29;85.43;96869.25;5062718;28;19920;-76
2023/03/07 04:08:25;;;;;;;;;;;;;;;1.26;85.18;96857.38;5063892;28;20026;-75
2023/03/07 04:10:50;;;;;;;;;;;;;;;1.28;85.35;96852.66;5066143;28;20046;-75
2023/03/07 04:13:15;;;;;;;;;;;;;;;1.25;85.46;96855.75;5065581;28;19925;-75
2023/03/07 04:15:41;;;;;;;;;;;;;;;1.30;85.17;96850.59;5066006;28;20018;-75
2023/03/07 04:18:06;;;;;;;;;;;;;;;1.33;84.94;96851.94;5058773;28;19939;-75
2023/03/07 04:20:31;;;;;;;;;;;;;;;1.26;85.31;96849.47;5066582;28;19942;-77
2023/03/07 04:22:56;;;;;;;;;;;;;;;1.16;85.44;96845.88;5058590;28;20027;-75
2023/03/07 04:25:21;;;;;;;;;;;;;;;1.23;85.67;96849.16;5066716;28;20023;-75
2023/03/07 04:27:47;;;;;;;;;;;;;;;1.23;85.76;96854.41;5061193;28;20406;-75
2023/03/07 04:30:12;;;;;;;;;;;;;;;1.24;85.85;96848.13;5063432;28;20406;-75
2023/03/07 04:32:38;;;;;;;;;;;;;;;1.26;85.77;96846.06;5063405;28;20365;-74
2023/03/07 04:35:03;;;;;;;;;;;;;;;1.29;85.68;96843.72;5056994;28;21668;-74
2023/03/07 04:37:28;;;;;;;;;;;;;;;1.30;85.50;96845.34;5058535;28;19942;-74
2023/03/07 04:39:53;;;;;;;;;;;;;;;1.30;86.07;96834.84;5060778;28;19921;-75
2023/03/07 04:42:19;;;;;;;;;;;;;;;1.31;85.99;96835.63;5062040;28;19926;-74
2023/03/07 04:44:44;;;;;;;;;;;;;;;1.38;85.48;96831.78;5060831;28;19929;-74
2023/03/07 04:47:09;;;;;;;;;;;;;;;1.42;85.42;96832.91;5060353;28;19924;-74
2023/03/07 04:49:34;;;;;;;;;;;;;;;1.38;85.46;96831.00;5041430;28;19928;-76
2023/03/07 04:52:00;;;;;;;;;;;;;;;1.41;85.37;96828.69;5060308;28;20288;-74
2023/03/07 04:54:25;;;;;;;;;;;;;;;1.35;85.63;96824.41;5061215;28;19929;-74
2023/03/07 04:56:50;;;;;;;;;;;;;;;1.36;85.53;96822.56;5060824;28;19924;-74
2023/03/07 04:59:15;;;;;;;;;;;;;;;1.42;85.33;96822.38;5061971;28;19927;-74
2023/03/07 05:01:41;;;;;;;;;;;;;;;1.38;85.28;96821.28;5060041;28;19953;-75
2023/03/07 05:04:06;;;;;;;;;;;;;;;1.41;85.61;96831.31;5062510;28;19978;-76
2023/03/07 05:06:31;;;;;;;;;;;;;;;1.41;85.80;96835.78;5062116;28;19931;-76
2023/03/07 05:08:56;;;;;;;;;;;;;;;1.35;85.97;96827.03;5059670;28;19940;-74
2023/03/07 05:11:21;;;;;;;;;;;;;;;1.38;86.07;96820.47;5059074;28;19924;-75
2023/03/07 05:13:47;;;;;;;;;;;;;;;1.48;85.40;96825.91;5037689;28;19970;-76
2023/03/07 05:16:12;;;;;;;;;;;;;;;1.39;85.90;96827.34;5054853;28;19924;-75
2023/03/07 05:18:37;;;;;;;;;;;;;;;1.39;86.17;96814.19;5058838;28;19990;-76
2023/03/07 05:21:02;;;;;;;;;;;;;;;1.46;85.59;96822.72;5059291;28;19920;-77
2023/03/07 05:23:28;;;;;;;;;;;;;;;1.45;85.96;96824.56;5045861;28;19920;-77
2023/03/07 05:25:53;;;;;;;;;;;;;;;1.44;86.26;96819.53;5063971;28;19920;-75
2023/03/07 05:28:18;;;;;;;;;;;;;;;1.50;85.67;96818.56;5058521;28;20015;-74
2023/03/07 05:30:44;;;;;;;;;;;;;;;1.42;85.98;96805.84;5056901;28;19977;-74
2023/03/07 05:33:09;;;;;;;;;;;;;;;1.50;86.02;96811.50;5063756;28;19916;-75
2023/03/07 05:35:34;;;;;;;;;;;;;;;1.45;86.07;96814.03;5064856;28;19975;-74
2023/03/07 05:38:00;;;;;;;;;;;;;;;1.34;86.55;96793.91;5043973;28;19963;-75
2023/03/07 05:40:25;;;;;;;;;;;;;;;1.39;86.59;96799.25;5060980;28;20058;-73
2023/03/07 05:42:50;;;;;;;;;;;;;;;1.41;86.18;96797.16;5061959;28;19959;-73
2023/03/07 05:45:15;;;;;;;;;;;;;;;1.46;86.17;96796.44;5063536;28;19920;-74
2023/03/07 05:47:41;;;;;;;;;;;;;;;1.52;85.92;96791.00;5058115;28;19998;-73
2023/03/07 05:50:07;;;;;;;;;;;;;;;1.50;86.05;96793.09;5062790;28;20354;-73
2023/03/07 05:52:32;;;;;;;;;;;;;;;1.44;86.08;96793.25;5063973;28;19924;-74
2023/03/07 05:54:58;;;;;;;;;;;;;;;1.54;86.12;96790.75;5043766;28;19973;-73
2023/03/07 05:57:23;;;;;;;;;;;;;;;1.58;85.96;96783.19;5063283;28;19921;-74
2023/03/07 05:59:48;;;;;;;;;;;;;;;1.44;86.04;96788.78;5068209;28;19916;-74
2023/03/07 06:02:13;;;;;;;;;;;;;;;1.62;85.96;96784.31;5063646;28;20019;-74
2023/03/07 06:04:39;;;;;;;;;;;;;;;1.57;85.85;96782.41;5062784;28;20008;-74
2023/03/07 06:07:04;;;;;;;;;;;;;;;1.58;86.09;96783.97;5060891;28;19986;-74
2023/03/07 06:09:29;;;;;;;;;;;;;;;1.55;85.79;96778.44;5058704;28;19924;-74
2023/03/07 06:11:54;;;;;;;;;;;;;;;1.47;86.67;96782.25;5064864;28;19928;-74
2023/03/07 06:14:20;;;;;;;;;;;;;;;1.60;86.14;96783.72;5061557;28;19920;-74
2023/03/07 06:16:45;;;;;;;;;;;;;;;1.57;85.97;96785.03;5046495;28;20402;-74
2023/03/07 06:19:10;;;;;;;;;;;;;;;1.60;86.11;96781.09;5062257;28;19968;-74
2023/03/07 06:21:35;;;;;;;;;;;;;;;1.58;86.41;96789.25;5066984;28;19939;-74
2023/03/07 06:24:01;;;;;;;;;;;;;;;1.53;86.06;96776.81;5065736;28;20596;-74
2023/03/07 06:26:26;;;;;;;;;;;;;;;1.52;86.29;96780.50;5046775;28;19931;-74
2023/03/07 06:28:51;;;;;;;;;;;;;;;1.60;86.03;96789.00;5063119;28;19928;-74
2023/03/07 06:31:17;;;;;;;;;;;;;;;1.60;86.23;96781.91;5064725;28;19920;-74
2023/03/07 06:33:43;;;;;;;;;;;;;;;1.60;86.30;96781.91;5065031;28;19916;-74
2023/03/07 06:36:10;;;;;;;;;;;;;;;1.65;86.11;96786.44;5064558;28;19924;-74
2023/03/07 06:38:35;;;;;;;;;;;;;;;1.59;86.59;96787.41;5061278;28;19916;-74
2023/03/07 06:41:01;;;;;;;;;;;;;;;1.54;86.62;96782.88;5069853;28;19943;-74
2023/03/07 06:43:26;;;;;;;;;;;;;;;1.67;86.46;96774.66;5067629;28;19965;-74
2023/03/07 06:45:51;;;;;;;;;;;;;;;1.74;86.15;96790.25;5071646;28;20019;-74
2023/03/07 06:48:17;;;;;;;;;;;;;;;1.76;85.73;96785.53;5066203;28;19933;-74
2023/03/07 06:50:42;;;;;;;;;;;;;;;1.76;86.29;96785.53;5070070;28;19916;-74
2023/03/07 06:53:07;;;;;;;;;;;;;;;1.67;86.42;96782.53;5067327;28;19920;-74
2023/03/07 06:55:33;;;;;;;;;;;;;;;1.64;86.68;96787.50;5059184;28;20035;-74
2023/03/07 06:57:58;;;;;;;;;;;;;;;1.68;86.35;96781.50;5061686;28;19929;-73
2023/03/07 07:00:23;;;;;;;;;;;;;;;1.68;86.85;96783.34;5062305;28;20419;-74
2023/03/07 07:02:48;;;;;;;;;;;;;;;1.73;86.77;96780.75;5062545;28;19928;-73
2023/03/07 07:05:14;;;;;;;;;;;;;;;1.70;86.83;96787.31;5065770;28;20305;-74
2023/03/07 07:07:39;;;;;;;;;;;;;;;1.73;86.76;96778.13;5067462;28;19972;-74
2023/03/07 07:10:04;;;;;;;;;;;;;;;1.70;87.21;96781.25;5060528;28;20416;-74
2023/03/07 07:12:30;;;;;;;;;;;;;;;1.74;86.91;96782.38;5065890;28;19924;-74
2023/03/07 07:14:55;;;;;;;;;;;;;;;1.74;87.05;96772.66;5062245;28;19951;-74
2023/03/07 07:17:20;;;;;;;;;;;;;;;1.82;86.70;96779.31;5061216;28;19964;-73
2023/03/07 07:19:46;;;;;;;;;;;;;;;1.70;87.36;96781.25;5070576;28;19916;-74
2023/03/07 07:22:11;;;;;;;;;;;;;;;1.74;87.34;96777.09;5068494;28;19921;-73
2023/03/07 07:24:37;;;;;;;;;;;;;;;1.79;87.26;96777.94;5068327;28;19932;-74
2023/03/07 07:27:02;;;;;;;;;;;;;;;1.77;87.38;96771.38;5063686;28;19938;-73
2023/03/07 07:29:27;;;;;;;;;;;;;;;1.82;87.44;96780.09;5064957;28;19932;-74
2023/03/07 07:31:52;;;;;;;;;;;;;;;1.79;87.18;96764.81;5068674;28;19920;-74
2023/03/07 07:34:18;;;;;;;;;;;;;;;1.89;86.83;96769.41;5072509;28;20269;-75
2023/03/07 07:36:43;;;;;;;;;;;;;;;1.91;87.25;96770.75;5069585;28;20324;-74
2023/03/07 07:39:09;;;;;;;;;;;;;;;1.91;86.98;96767.31;5047210;28;20009;-73
2023/03/07 07:41:34;;;;;;;;;;;;;;;1.95;86.54;96769.22;5066791;28;20062;-74
2023/03/07 07:43:59;;;;;;;;;;;;;;;1.95;87.10;96769.22;5070095;28;20003;-74
2023/03/07 07:46:27;;;;;;;;;;;;;;;1.99;86.88;96765.06;5062468;28;19925;-74
2023/03/07 07:48:52;;;;;;;;;;;;;;;2.02;86.84;96763.78;5061743;28;19920;-73
2023/03/07 07:51:17;;;;;;;;;;;;;;;2.01;87.31;96757.72;5067927;28;20309;-73
2023/03/07 07:53:43;;;;;;;;;;;;;;;2.04;86.55;96765.13;5067480;28;20007;-73
2023/03/07 07:56:08;;;;;;;;;;;;;;;1.99;86.91;96762.44;5074598;28;20149;-73
2023/03/07 07:58:34;;;;;;;;;;;;;;;2.02;87.00;96764.59;5068895;28;20407;-73
2023/03/07 08:00:59;;;;;;;;;;;;;;;2.14;87.17;96764.47;5069028;28;19916;-73
2023/03/07 08:03:24;;;;;;;;;;;;;;;2.15;86.96;96766.84;5069105;28;19921;-74
2023/03/07 08:05:50;;;;;;;;;;;;;;;2.05;87.36;96768.56;5071971;28;19917;-74
2023/03/07 08:08:16;;;;;;;;;;;;;;;2.07;87.40;96761.22;5071812;28;19920;-73
2023/03/07 08:10:43;;;;;;;;;;;;;;;2.12;87.22;96759.44;5053111;28;19943;-74
2023/03/07 08:13:17;;;;;;;;;;;;;;;2.19;87.09;96753.97;5066710;28;19999;-73
2023/03/07 08:15:42;;;;;;;;;;;;;;;2.20;87.19;96755.59;5069657;28;20285;-74
2023/03/07 08:18:09;;;;;;;;;;;;;;;2.36;86.62;96753.91;5070825;28;19925;-74
2023/03/07 08:20:35;;;;;;;;;;;;;;;2.35;86.58;96744.41;5073396;28;19920;-74
2023/03/07 08:23:00;;;;;;;;;;;;;;;2.31;86.78;96745.94;5075354;28;19940;-74
2023/03/07 08:25:25;;;;;;;;;;;;;;;2.38;86.82;96734.16;5073063;28;19927;-74
2023/03/07 08:27:54;;;;;;;;;;;;;;;2.38;86.86;96746.56;5070018;28;19932;-74
2023/03/07 08:30:20;;;;;;;;;;;;;;;2.47;86.96;96745.06;5070263;28;19916;-74
2023/03/07 08:32:47;;;;;;;;;;;;;;;2.44;87.43;96751.63;5060065;28;20300;-74
2023/03/07 08:35:12;;;;;;;;;;;;;;;2.42;87.07;96745.03;5062696;28;19925;-74
2023/03/07 08:37:38;;;;;;;;;;;;;;;2.41;86.84;96746.84;5070295;28;20277;-74
2023/03/07 08:40:04;;;;;;;;;;;;;;;2.39;87.44;96743.66;5071061;28;19971;-73
2023/03/07 08:42:29;;;;;;;;;;;;;;;2.42;87.46;96735.28;5068440;28;20300;-74
2023/03/07 08:44:54;;;;;;;;;;;;;;;2.57;86.80;96743.34;5074332;28;19967;-74
2023/03/07 08:47:19;;;;;;;;;;;;;;;2.55;86.54;96742.00;5051628;28;19929;-73
2023/03/07 08:49:45;;;;;;;;;;;;;;;2.55;86.59;96739.34;5064797;28;19933;-73
2023/03/07 08:52:10;;;;;;;;;;;;;;;2.58;86.69;96728.34;5068448;28;19949;-74
2023/03/07 08:54:35;;;;;;;;;;;;;;;2.60;86.93;96734.91;5052104;28;19929;-73
2023/03/07 08:57:00;;;;;;;;;;;;;;;2.58;86.96;96731.75;5071642;28;19928;-74
2023/03/07 08:59:26;;;;;;;;;;;;;;;2.65;86.85;96739.44;5062813;28;19928;-74
2023/03/07 09:01:51;;;;;;;;;;;;;;;2.68;86.54;96731.06;5063434;28;19923;-74
2023/03/07 09:04:16;;;;;;;;;;;;;;;2.69;86.83;96732.63;5082661;28;20383;-74
2023/03/07 09:06:41;;;;;;;;;;;;;;;2.74;86.67;96716.88;5072417;28;20266;-74
2023/03/07 09:09:06;;;;;;;;;;;;;;;2.64;86.94;96736.03;5072043;28;19921;-74
2023/03/07 09:11:32;;;;;;;;;;;;;;;2.77;87.27;96734.81;5062621;28;20027;-74
2023/03/07 09:13:57;;;;;;;;;;;;;;;2.69;87.36;96733.41;5046784;28;20025;-74
2023/03/07 09:16:22;;;;;;;;;;;;;;;2.78;87.05;96717.97;5066622;28;19928;-73
2023/03/07 09:18:48;;;;;;;;;;;;;;;2.78;87.22;96731.94;5032679;28;19986;-74
2023/03/07 09:21:13;;;;;;;;;;;;;;;2.81;86.74;96723.53;5054280;28;19977;-73
2023/03/07 09:23:38;;;;;;;;;;;;;;;2.74;87.66;96725.56;5067941;28;19926;-74
2023/03/07 09:26:04;;;;;;;;;;;;;;;2.82;87.38;96711.13;5067669;28;19925;-73
2023/03/07 09:28:30;;;;;;;;;;;;;;;2.84;86.87;96720.38;5065796;28;20054;-74
2023/03/07 09:30:55;;;;;;;;;;;;;;;2.93;86.81;96718.06;5069767;28;20007;-74
2023/03/07 09:33:20;;;;;;;;;;;;;;;2.90;86.89;96708.88;5070007;28;20381;-73
2023/03/07 09:35:45;;;;;;;;;;;;;;;2.92;87.25;96711.22;5066105;28;20452;-74
2023/03/07 09:38:11;;;;;;;;;;;;;;;2.92;87.51;96706.75;5068388;28;20335;-74
2023/03/07 09:40:37;;;;;;;;;;;;;;;2.90;87.39;96714.13;5068485;28;20419;-74
2023/03/07 09:43:18;;;;;;;;;;;;;;;2.90;87.80;96705.44;5068650;28;20301;-74
2023/03/07 09:45:52;;;;;;;;;;;;;;;2.94;87.54;96711.78;5066506;28;19917;-74
2023/03/07 09:48:46;;;;;;;;;;;;;;;2.98;87.70;96703.13;5060262;28;19932;-74
2023/03/07 09:51:11;;;;;;;;;;;;;;;2.95;87.14;96698.34;5064638;28;19943;-73
2023/03/07 09:53:45;;;;;;;;;;;;;;;2.96;87.44;96704.41;5067618;28;19920;-74
2023/03/07 09:56:22;;;;;;;;;;;;;;;2.91;87.98;96691.19;5062979;28;19924;-74
2023/03/07 09:58:50;;;;;;;;;;;;;;;3.03;87.01;96689.19;5060015;28;19920;-72
2023/03/07 10:01:20;;;;;;;;;;;;;;;3.13;86.42;96677.91;5054898;28;19920;-75
2023/03/07 10:03:45;;;;;;;;;;;;;;;3.17;86.83;96690.31;5064518;28;19924;-74
2023/03/07 10:06:16;;;;;;;;;;;;;;;3.18;86.90;96688.47;5047564;28;19917;-74
2023/03/07 10:08:42;;;;;;;;;;;;;;;3.24;86.65;96679.56;5064572;28;19963;-73
2023/03/07 10:11:07;;;;;;;;;;;;;;;3.17;87.36;96676.38;5063976;28;19959;-74
2023/03/07 10:13:51;;;;;;;;;;;;;;;3.25;86.50;96673.25;5050541;28;19971;-74
2023/03/07 10:16:16;;;;;;;;;;;;;;;3.14;87.44;96668.97;5067418;28;19931;-74
2023/03/07 10:18:41;;;;;;;;;;;;;;;3.22;86.89;96673.75;5065755;28;19920;-74
2023/03/07 10:21:25;;;;;;;;;;;;;;;3.09;88.03;96679.47;5058586;28;19952;-73
2023/03/07 10:24:11;;;;;;;;;;;;;;;3.15;87.50;96670.53;5055494;28;20003;-74
2023/03/07 10:26:49;;;;;;;;;;;;;;;3.27;87.09;96673.78;5039658;28;20584;-74
2023/03/07 10:29:21;;;;;;;;;;;;;;;3.20;88.35;96683.75;5047147;28;20337;-74
2023/03/07 10:31:47;;;;;;;;;;;;;;;3.20;87.70;96675.84;5056437;28;20388;-73
2023/03/07 10:34:20;;;;;;;;;;;;;;;3.22;87.40;96673.75;5055903;28;19991;-72
2023/03/07 10:36:48;;;;;;;;;;;;;;;3.29;87.38;96672.47;5058286;28;20437;-74
2023/03/07 10:39:23;;;;;;;;;;;;;;;3.29;87.67;96684.88;5058664;28;20011;-73
2023/03/07 10:41:49;;;;;;;;;;;;;;;3.22;88.47;96671.09;5059994;28;19935;-74
2023/03/07 10:44:16;;;;;;;;;;;;;;;3.35;87.94;96670.66;5048358;28;19920;-74
2023/03/07 10:46:42;;;;;;;;;;;;;;;3.39;88.38;96679.63;5061255;28;20278;-74
2023/03/07 10:49:12;;;;;;;;;;;;;;;3.39;88.61;96659.34;5051290;28;19951;-74
2023/03/07 10:51:43;;;;;;;;;;;;;;;3.43;89.06;96673.59;5065185;28;19921;-73
2023/03/07 10:54:16;;;;;;;;;;;;;;;3.41;89.15;96669.63;5067692;28;20296;-74
2023/03/07 10:57:01;;;;;;;;;;;;;;;3.43;88.38;96670.19;5068082;28;19969;-73
2023/03/07 10:59:26;;;;;;;;;;;;;;;3.40;88.60;96665.41;5067043;28;19928;-74
2023/03/07 11:01:53;;;;;;;;;;;;;;;3.45;88.63;96662.81;5066411;28;19917;-74
2023/03/07 11:04:20;;;;;;;;;;;;;;;3.37;88.65;96672.00;5058924;28;19921;-73
2023/03/07 11:06:53;;;;;;;;;;;;;;;3.40;88.39;96668.06;5057557;28;19955;-74
2023/03/07 11:09:24;;;;;;;;;;;;;;;3.46;88.13;96677.56;5066527;28;20018;-74
2023/03/07 11:11:54;;;;;;;;;;;;;;;3.49;87.93;96683.16;5064950;28;21367;-74
2023/03/07 11:14:22;;;;;;;;;;;;;;;3.50;87.72;96676.00;5063166;28;19928;-74
2023/03/07 11:16:47;;;;;;;;;;;;;;;3.46;87.21;96680.22;5064647;28;20282;-74
2023/03/07 11:19:43;;;;;;;;;;;;;;;3.59;87.19;96685.00;5052653;28;19976;-75
2023/03/07 11:22:16;;;;;;;;;;;;;;;3.57;86.90;96703.75;5057096;28;19916;-75
2023/03/07 11:24:46;;;;;;;;;;;;;;;3.52;86.88;96702.91;5061423;28;20032;-74
2023/03/07 11:27:18;;;;;;;;;;;;;;;3.53;86.61;96707.16;5062692;28;19927;-73
2023/03/07 11:29:43;;;;;;;;;;;;;;;3.32;86.98;96721.28;5065102;28;20548;-73
2023/03/07 11:32:17;;;;;;;;;;;;;;;3.09;87.75;96722.44;5064721;28;19974;-74
2023/03/07 11:34:52;;;;;;;;;;;;;;;2.96;86.32;96721.03;5064064;28;19962;-73
2023/03/07 11:37:24;;;;;;;;;;;;;;;3.00;86.66;96731.84;5064240;28;19917;-74
2023/03/07 11:39:56;;;;;;;;;;;;;;;2.93;86.95;96725.97;5057729;28;20221;-73
2023/03/07 11:42:25;;;;;;;;;;;;;;;2.78;86.65;96721.41;5059610;28;19924;-73
2023/03/07 11:44:50;;;;;;;;;;;;;;;2.70;87.45;96734.22;5058451;28;19924;-74
2023/03/07 11:47:21;;;;;;;;;;;;;;;2.87;86.52;96729.63;5058933;28;20269;-73
2023/03/07 11:50:08;;;;;;;;;;;;;;;2.65;87.25;96734.16;5063473;28;19917;-74
2023/03/07 11:52:48;;;;;;;;;;;;;;;2.88;87.36;96736.50;5058987;28;19928;-74
2023/03/07 11:55:19;;;;;;;;;;;;;;;2.86;87.06;96739.38;5057341;28;19924;-74
2023/03/07 11:58:02;;;;;;;;;;;;;;;2.84;86.75;96735.41;5059272;28;19917;-74
2023/03/07 12:00:33;;;;;;;;;;;;;;;3.02;86.45;96741.09;5059763;28;20415;-74
2023/03/07 12:02:59;;;;;;;;;;;;;;;3.02;86.25;96742.91;5061361;28;20397;-73
2023/03/07 12:05:37;;;;;;;;;;;;;;;2.99;86.37;96733.66;5062486;28;19928;-73
2023/03/07 12:08:12;;;;;;;;;;;;;;;2.99;86.29;96738.94;5058887;28;19943;-74
2023/03/07 12:10:56;;;;;;;;;;;;;;;3.14;85.85;96742.75;5060929;28;20340;-73
2023/03/07 12:13:40;;;;;;;;;;;;;;;3.24;85.06;96743.63;5058768;28;19923;-74
2023/03/07 12:16:05;;;;;;;;;;;;;;;3.13;85.96;96738.50;5059523;28;19924;-73
2023/03/07 12:18:41;;;;;;;;;;;;;;;3.09;86.16;96745.34;5041780;28;21457;-73
2023/03/07 12:21:35;;;;;;;;;;;;;;;2.98;86.23;96742.63;5057740;28;20011;-74
2023/03/07 12:24:04;;;;;;;;;;;;;;;3.09;85.90;96745.34;5042284;28;20487;-73
2023/03/07 12:26:42;;;;;;;;;;;;;;;2.99;86.42;96749.47;5067452;28;19950;-73
2023/03/07 12:29:23;;;;;;;;;;;;;;;2.96;86.25;96749.19;5067961;28;19928;-73
2023/03/07 12:31:50;;;;;;;;;;;;;;;2.86;86.51;96749.13;5067247;28;19927;-73
2023/03/07 12:34:42;;;;;;;;;;;;;;;2.81;86.20;96752.50;5069825;28;20309;-73
2023/03/07 12:37:26;;;;;;;;;;;;;;;2.95;85.60;96758.13;5064670;28;19917;-73
2023/03/07 12:39:58;;;;;;;;;;;;;;;2.85;86.07;96755.44;5067017;28;19916;-73
2023/03/07 12:42:23;;;;;;;;;;;;;;;2.76;86.16;96756.94;5067317;28;20399;-73
2023/03/07 12:44:50;;;;;;;;;;;;;;;2.71;86.00;96760.31;5070334;28;19913;-73
2023/03/07 12:47:16;;;;;;;;;;;;;;;2.67;86.56;96753.94;5061135;28;19928;-73
2023/03/07 12:49:42;;;;;;;;;;;;;;;2.78;86.40;96753.00;5066932;28;20014;-73
2023/03/07 12:52:13;;;;;;;;;;;;;;;2.64;86.85;96754.47;5062830;28;20020;-73
2023/03/07 12:54:43;;;;;;;;;;;;;;;2.92;86.16;96766.56;5068448;28;19922;-73
2023/03/07 12:57:27;;;;;;;;;;;;;;;2.64;86.51;96761.56;5059354;28;20827;-73
2023/03/07 12:59:56;;;;;;;;;;;;;;;2.76;86.78;96764.81;5056331;28;19927;-73